Time;durP1;ratioP1;P1;durP2;ratioP2;P2;SDS_P1;SDS_P2;PMS_P1;PMS_P2;Temp;Humidity;BMP_temperature;BMP_pressure;BME280_temperature;BME280_humidity;BME280_pressure;Samples;Min_cycle;Max_cycle;Signal;HPM_P1;HPM_P2
2021/03/23 00:00:48;;;;;;;9.25;3.80;;;3.20;91.20;;;;;;4977353;28;20081;-80
2021/03/23 00:03:24;;;;;;;11.43;3.85;;;3.10;91.20;;;;;;4977238;28;20031;-80
2021/03/23 00:05:50;;;;;;;8.63;3.60;;;3.00;91.20;;;;;;4977279;28;20054;-81
2021/03/23 00:08:23;;;;;;;12.48;3.97;;;2.90;91.20;;;;;;4983639;28;20050;-81
2021/03/23 00:10:49;;;;;;;9.95;4.40;;;2.90;91.20;;;;;;4978701;28;20486;-81
2021/03/23 00:13:14;;;;;;;9.98;4.13;;;2.80;91.30;;;;;;4996555;28;20027;-80
2021/03/23 00:15:42;;;;;;;9.60;4.25;;;2.80;91.30;;;;;;4996235;28;20089;-80
2021/03/23 00:18:09;;;;;;;11.38;4.57;;;2.70;91.20;;;;;;4996170;28;20049;-80
2021/03/23 00:20:34;;;;;;;7.45;3.50;;;2.70;91.20;;;;;;4996405;28;20026;-80
2021/03/23 00:23:00;;;;;;;11.02;4.55;;;2.60;91.20;;;;;;4996994;28;20037;-79
2021/03/23 00:25:25;;;;;;;10.10;3.92;;;2.50;91.20;;;;;;4997040;28;20034;-79
2021/03/23 00:27:51;;;;;;;10.45;4.07;;;2.50;91.20;;;;;;4995523;28;20034;-80
2021/03/23 00:30:18;;;;;;;10.95;4.45;;;2.40;91.10;;;;;;4979116;28;20471;-80
2021/03/23 00:32:43;;;;;;;13.02;4.43;;;2.40;91.20;;;;;;4996426;28;20229;-80
2021/03/23 00:35:10;;;;;;;11.32;4.38;;;2.30;91.10;;;;;;4996458;28;20175;-79
2021/03/23 00:37:37;;;;;;;10.30;4.57;;;2.20;91.10;;;;;;4996328;28;20038;-79
2021/03/23 00:40:05;;;;;;;11.55;4.20;;;2.20;91.20;;;;;;4995936;28;20023;-79
2021/03/23 00:42:33;;;;;;;9.38;3.90;;;2.20;91.20;;;;;;4996210;28;20505;-79
2021/03/23 00:44:58;;;;;;;10.90;4.60;;;2.10;91.20;;;;;;4996061;28;20478;-79
2021/03/23 00:47:24;;;;;;;9.90;4.05;;;2.10;91.30;;;;;;4996088;28;20150;-79
2021/03/23 00:49:49;;;;;;;9.68;4.05;;;2.10;91.40;;;;;;4996015;28;20054;-79
2021/03/23 00:52:15;;;;;;;11.63;4.50;;;2.20;91.50;;;;;;4995678;28;20499;-79
2021/03/23 00:54:40;;;;;;;12.15;4.45;;;2.20;91.60;;;;;;4995826;28;20498;-79
2021/03/23 00:57:06;;;;;;;13.75;3.80;;;2.20;91.70;;;;;;4978148;28;20042;-79
2021/03/23 00:59:32;;;;;;;11.50;4.30;;;2.30;91.70;;;;;;4995461;28;20104;-79
2021/03/23 01:01:57;;;;;;;12.40;3.75;;;2.30;91.70;;;;;;4995661;28;20062;-79
2021/03/23 01:49:17;;;;;;;10.18;3.60;;;3.10;92.20;;;;;;3184829;28;20089;-81
2021/03/23 01:51:46;;;;;;;10.40;4.68;;;3.10;91.90;;;;;;4984028;28;20411;-80
2021/03/23 01:54:25;;;;;;;10.75;3.92;;;3.10;91.80;;;;;;4966680;28;20027;-80
2021/03/23 01:56:56;;;;;;;11.48;4.18;;;3.10;91.90;;;;;;4994490;28;20089;-80
2021/03/23 01:59:25;;;;;;;9.50;3.80;;;3.10;91.90;;;;;;4960951;28;20023;-80
2021/03/23 02:01:52;;;;;;;9.50;4.13;;;3.10;91.90;;;;;;4974967;28;20051;-80
2021/03/23 02:04:18;;;;;;;9.85;4.10;;;3.10;92.00;;;;;;4974998;28;20027;-80
2021/03/23 02:06:49;;;;;;;10.95;4.32;;;3.10;92.00;;;;;;4964634;28;20050;-80
2021/03/23 02:09:19;;;;;;;11.77;3.95;;;3.20;92.00;;;;;;4994570;28;20050;-80
2021/03/23 02:11:59;;;;;;;8.15;3.22;;;3.20;92.00;;;;;;4994177;28;20041;-80
2021/03/23 02:14:28;;;;;;;12.93;4.50;;;3.20;92.00;;;;;;4994335;28;20022;-80
2021/03/23 02:16:54;;;;;;;10.73;4.07;;;3.30;92.10;;;;;;4993005;28;20502;-80
2021/03/23 02:19:23;;;;;;;15.32;4.28;;;3.20;92.00;;;;;;4994314;28;20109;-80
2021/03/23 02:21:49;;;;;;;12.60;4.05;;;3.30;92.00;;;;;;4994390;28;20077;-80
2021/03/23 02:24:16;;;;;;;15.07;3.92;;;3.30;92.00;;;;;;4983635;28;20030;-80
2021/03/23 02:26:43;;;;;;;12.38;4.07;;;3.30;92.00;;;;;;4974730;28;20038;-80
2021/03/23 02:29:17;;;;;;;11.80;4.25;;;3.30;92.00;;;;;;4974767;28;20043;-80
2021/03/23 02:31:51;;;;;;;11.60;4.23;;;3.30;92.10;;;;;;4974853;28;20032;-80
2021/03/23 02:34:21;;;;;;;8.88;3.90;;;3.40;92.10;;;;;;4957088;28;20336;-80
2021/03/23 02:36:48;;;;;;;10.05;3.47;;;3.40;92.10;;;;;;4974680;28;20465;-80
2021/03/23 02:39:18;;;;;;;9.82;3.78;;;3.40;92.10;;;;;;4957220;28;20463;-80
2021/03/23 02:41:44;;;;;;;10.43;4.35;;;3.50;92.10;;;;;;4974576;28;20058;-80
2021/03/23 02:44:10;;;;;;;11.52;4.45;;;3.50;92.10;;;;;;4974599;28;20031;-80
2021/03/23 02:46:36;;;;;;;9.63;4.43;;;3.50;92.10;;;;;;4957522;28;20031;-80
2021/03/23 02:49:04;;;;;;;12.32;4.72;;;3.50;92.10;;;;;;4974325;28;20118;-80
2021/03/23 02:51:30;;;;;;;11.43;4.15;;;3.60;92.10;;;;;;4975516;28;20030;-80
2021/03/23 02:53:55;;;;;;;12.00;4.07;;;3.60;92.10;;;;;;4961745;28;20475;-80
2021/03/23 02:56:21;;;;;;;10.20;4.05;;;3.60;92.10;;;;;;4961404;28;20050;-81
2021/03/23 02:58:47;;;;;;;9.75;4.15;;;3.60;92.00;;;;;;4992195;28;20026;-81
2021/03/23 03:01:14;;;;;;;9.80;3.90;;;3.50;91.90;;;;;;4980816;28;20031;-80
2021/03/23 03:03:40;;;;;;;9.93;4.15;;;3.50;92.00;;;;;;4997954;28;20037;-80
2021/03/23 03:06:06;;;;;;;8.77;3.60;;;3.60;92.00;;;;;;4997993;28;20035;-80
2021/03/23 03:08:33;;;;;;;13.00;4.47;;;3.60;92.00;;;;;;4997000;28;20031;-81
2021/03/23 03:10:58;;;;;;;10.90;4.47;;;3.60;92.00;;;;;;4997503;28;20038;-81
2021/03/23 03:13:24;;;;;;;11.07;4.15;;;3.60;92.10;;;;;;4997833;28;20030;-81
2021/03/23 03:15:52;;;;;;;11.20;5.18;;;3.60;92.00;;;;;;4997610;28;20038;-80
2021/03/23 03:18:19;;;;;;;9.07;4.10;;;3.60;91.90;;;;;;4997616;28;20482;-80
2021/03/23 03:20:45;;;;;;;9.48;3.90;;;3.60;91.90;;;;;;4997770;28;20363;-80
2021/03/23 03:23:11;;;;;;;11.15;4.50;;;3.60;92.00;;;;;;4997313;28;20041;-79
2021/03/23 03:25:37;;;;;;;13.48;4.10;;;3.60;92.00;;;;;;4997472;28;20501;-79
2021/03/23 03:28:04;;;;;;;12.32;3.75;;;3.60;92.00;;;;;;4997417;28;20034;-79
2021/03/23 03:30:32;;;;;;;10.75;4.18;;;3.60;92.00;;;;;;4997422;28;20025;-79
2021/03/23 03:32:58;;;;;;;12.70;3.95;;;3.60;92.00;;;;;;4997206;28;20065;-79
2021/03/23 03:35:27;;;;;;;9.65;3.88;;;3.60;92.00;;;;;;4997304;28;20030;-79
2021/03/23 03:37:53;;;;;;;11.27;3.70;;;3.60;92.00;;;;;;4996937;28;20018;-79
2021/03/23 03:40:22;;;;;;;12.80;3.75;;;3.60;92.00;;;;;;4979756;28;20041;-79
2021/03/23 03:42:48;;;;;;;10.73;3.85;;;3.60;92.00;;;;;;4997123;28;20022;-79
2021/03/23 03:45:14;;;;;;;8.48;3.83;;;3.60;91.90;;;;;;4997127;28;20031;-79
2021/03/23 03:47:40;;;;;;;9.90;3.83;;;3.60;91.90;;;;;;4997004;28;20037;-79
2021/03/23 03:50:07;;;;;;;10.25;3.60;;;3.60;92.00;;;;;;4988784;28;20133;-79
2021/03/23 03:52:33;;;;;;;12.10;3.72;;;3.60;92.00;;;;;;4997007;28;20393;-79
2021/03/23 03:54:58;;;;;;;9.52;3.58;;;3.70;92.00;;;;;;4996886;28;20024;-79
2021/03/23 03:57:24;;;;;;;12.05;4.13;;;3.70;92.10;;;;;;4994297;28;20042;-80
2021/03/23 03:59:51;;;;;;;9.05;3.67;;;3.70;92.00;;;;;;4977500;28;20023;-80
2021/03/23 04:02:16;;;;;;;9.43;3.85;;;3.70;92.00;;;;;;4977102;28;20054;-80
2021/03/23 04:04:44;;;;;;;13.35;3.97;;;3.70;92.10;;;;;;4977269;28;20026;-80
2021/03/23 04:37:28;;;;;;;11.50;4.90;;;3.90;92.30;;;;;;4982802;28;20046;-80
2021/03/23 04:39:54;;;;;;;12.95;5.28;;;3.90;92.30;;;;;;4985307;28;20026;-80
2021/03/23 04:42:19;;;;;;;11.57;4.60;;;3.90;92.20;;;;;;4986364;28;20034;-80
2021/03/23 04:44:45;;;;;;;12.07;4.45;;;3.90;92.20;;;;;;4976608;28;20031;-80
2021/03/23 04:47:10;;;;;;;13.73;5.18;;;3.90;92.20;;;;;;4989694;28;20030;-81
2021/03/23 04:49:36;;;;;;;11.85;4.60;;;3.90;92.20;;;;;;5010693;28;20121;-81
2021/03/23 04:52:02;;;;;;;14.38;4.72;;;4.00;92.20;;;;;;5011143;28;20459;-81
2021/03/23 04:54:29;;;;;;;12.10;4.68;;;4.00;92.20;;;;;;4992549;28;20526;-81
2021/03/23 04:56:55;;;;;;;11.25;4.80;;;4.00;92.20;;;;;;4976579;28;20126;-80
2021/03/23 04:59:20;;;;;;;14.98;5.18;;;4.00;92.10;;;;;;4975205;28;20059;-80
2021/03/23 05:01:46;;;;;;;12.05;4.65;;;4.00;92.20;;;;;;4976254;28;20483;-80
2021/03/23 05:04:17;;;;;;;13.02;5.10;;;4.00;92.20;;;;;;4976059;28;20061;-81
2021/03/23 05:06:43;;;;;;;11.07;4.82;;;4.00;92.10;;;;;;4976185;28;20023;-81
2021/03/23 05:09:08;;;;;;;12.68;5.15;;;4.00;92.10;;;;;;4974790;28;20043;-81
2021/03/23 05:11:35;;;;;;;15.55;5.32;;;4.10;92.20;;;;;;4979604;28;20056;-81
2021/03/23 05:14:02;;;;;;;13.02;4.70;;;4.00;92.10;;;;;;4993762;28;20488;-81
2021/03/23 05:16:28;;;;;;;13.65;4.68;;;4.10;92.40;;;;;;4994120;28;20042;-81
2021/03/23 05:18:54;;;;;;;12.00;4.65;;;4.00;92.10;;;;;;4995641;28;20037;-81
2021/03/23 05:21:21;;;;;;;14.57;4.70;;;4.10;92.10;;;;;;4996115;28;20038;-80
2021/03/23 05:23:46;;;;;;;14.35;4.35;;;4.10;92.10;;;;;;4995851;28;20024;-80
2021/03/23 05:26:12;;;;;;;12.43;5.32;;;4.00;92.10;;;;;;4977759;28;20586;-79
2021/03/23 05:28:38;;;;;;;10.43;4.43;;;4.10;92.10;;;;;;4995405;28;20552;-80
2021/03/23 05:31:04;;;;;;;12.57;4.93;;;4.10;92.10;;;;;;4995434;28;20030;-80
2021/03/23 05:33:31;;;;;;;10.55;4.20;;;4.10;92.10;;;;;;4993933;28;20031;-80
2021/03/23 05:35:58;;;;;;;14.00;4.25;;;4.10;92.10;;;;;;4994809;28;20502;-79
2021/03/23 05:38:25;;;;;;;11.07;4.57;;;4.10;92.10;;;;;;4995116;28;20509;-79
2021/03/23 05:41:03;;;;;;;10.50;4.50;;;4.10;92.10;;;;;;4994990;28;20045;-80
2021/03/23 05:43:28;;;;;;;13.35;5.10;;;4.10;92.20;;;;;;4994932;28;20026;-80
2021/03/23 05:46:19;;;;;;;11.93;5.03;;;4.20;92.20;;;;;;4989904;28;20522;-80
2021/03/23 05:49:10;;;;;;;13.43;5.30;;;4.20;92.40;;;;;;4974202;28;20034;-80
2021/03/23 05:51:40;;;;;;;11.65;4.53;;;4.20;92.10;;;;;;4975381;28;20106;-79
2021/03/23 05:54:11;;;;;;;11.10;4.80;;;4.30;92.30;;;;;;4975430;28;20023;-80
2021/03/23 05:56:39;;;;;;;10.75;4.65;;;4.30;92.30;;;;;;4974882;28;20035;-80
2021/03/23 05:59:16;;;;;;;10.05;4.28;;;4.30;92.30;;;;;;4975340;28;20420;-80
2021/03/23 06:01:50;;;;;;;10.43;4.60;;;4.40;92.30;;;;;;4975707;28;20109;-80
2021/03/23 06:04:32;;;;;;;14.05;4.97;;;4.40;92.20;;;;;;4974985;28;20058;-79
2021/03/23 06:07:05;;;;;;;10.27;4.45;;;4.40;92.20;;;;;;4975186;28;20033;-79
2021/03/23 06:09:36;;;;;;;10.88;4.68;;;4.50;92.30;;;;;;4975183;28;20438;-81
2021/03/23 06:12:11;;;;;;;9.68;4.28;;;4.50;92.30;;;;;;4957536;28;20034;-81
2021/03/23 06:14:56;;;;;;;11.15;4.72;;;4.50;92.40;;;;;;4974745;28;20015;-82
2021/03/23 06:17:46;;;;;;;12.52;4.65;;;4.60;92.50;;;;;;4974831;28;20034;-83
2021/03/23 06:20:32;;;;;;;11.00;4.53;;;4.70;92.50;;;;;;4957850;28;20037;-83
2021/03/23 06:23:19;;;;;;;11.00;4.53;;;4.70;92.40;;;;;;4974768;28;20034;-83
2021/03/23 06:26:07;;;;;;;10.35;4.55;;;4.80;92.50;;;;;;4973965;28;20027;-83
2021/03/23 06:28:58;;;;;;;13.35;4.97;;;4.80;92.40;;;;;;4974815;28;20061;-84
2021/03/23 06:32:00;;;;;;;13.52;5.30;;;4.90;92.40;;;;;;4957861;28;20027;-82
2021/03/23 06:34:32;;;;;;;12.85;4.68;;;4.90;92.40;;;;;;4974792;28;20019;-82
2021/03/23 06:36:59;;;;;;;10.18;4.40;;;5.00;92.50;;;;;;4974651;28;20048;-80
2021/03/23 06:39:29;;;;;;;12.65;4.88;;;5.10;92.50;;;;;;4974857;28;20023;-80
2021/03/23 06:42:02;;;;;;;10.80;4.40;;;5.10;92.60;;;;;;4974669;28;20027;-80
2021/03/23 06:44:36;;;;;;;13.35;5.28;;;5.20;92.60;;;;;;4974324;28;20130;-80
2021/03/23 06:47:03;;;;;;;11.98;5.18;;;5.30;92.70;;;;;;4988629;28;20386;-84
2021/03/23 06:49:34;;;;;;;11.90;4.93;;;5.40;92.70;;;;;;4994016;28;20403;-78
2021/03/23 06:52:06;;;;;;;12.80;5.43;;;5.50;92.60;;;;;;4993920;28;20463;-78
2021/03/23 06:54:40;;;;;;;15.88;5.60;;;5.50;92.50;;;;;;4994064;28;20042;-78
2021/03/23 06:57:14;;;;;;;11.10;4.78;;;5.60;92.60;;;;;;4993908;28;20088;-78
2021/03/23 07:00:07;;;;;;;12.20;5.43;;;5.70;92.70;;;;;;4993755;28;20062;-79
2021/03/23 07:02:35;;;;;;;15.88;5.70;;;5.90;92.90;;;;;;4993838;28;20053;-79
2021/03/23 07:05:23;;;;;;;12.85;6.45;;;5.90;92.60;;;;;;4993843;28;20427;-80
2021/03/23 07:07:58;;;;;;;11.60;5.18;;;6.00;92.60;;;;;;4993754;28;20018;-79
2021/03/23 07:10:34;;;;;;;13.43;6.18;;;6.10;92.70;;;;;;4993726;28;20030;-79
2021/03/23 07:13:00;;;;;;;13.38;6.32;;;6.10;92.60;;;;;;4993805;28;20029;-79
2021/03/23 07:15:32;;;;;;;16.08;7.38;;;6.20;92.60;;;;;;4993747;28;20026;-79
2021/03/23 07:18:11;;;;;;;16.52;7.10;;;6.30;92.60;;;;;;4976341;28;20095;-79
2021/03/23 07:20:49;;;;;;;13.93;6.53;;;6.30;92.70;;;;;;4975994;28;20054;-79
2021/03/23 07:23:37;;;;;;;13.52;6.18;;;6.40;92.80;;;;;;4993763;28;20108;-79
2021/03/23 07:26:23;;;;;;;21.23;8.10;;;6.50;92.70;;;;;;4993703;28;20026;-79
2021/03/23 07:28:48;;;;;;;19.52;7.65;;;6.60;92.50;;;;;;4993578;28;20491;-79
2021/03/23 07:31:32;;;;;;;26.55;8.70;;;6.50;92.30;;;;;;4993595;28;20037;-79
2021/03/23 07:34:14;;;;;;;15.77;5.72;;;6.50;92.40;;;;;;4993831;28;20362;-79
2021/03/23 07:36:46;;;;;;;15.90;6.05;;;6.50;92.50;;;;;;4993306;28;20057;-83
2021/03/23 07:39:31;;;;;;;16.02;6.32;;;6.60;92.70;;;;;;4995968;28;20026;-79
2021/03/23 07:42:04;;;;;;;14.00;6.10;;;6.60;92.60;;;;;;4997145;28;20506;-80
2021/03/23 07:44:40;;;;;;;18.88;6.72;;;6.70;92.70;;;;;;4979945;28;20038;-80
2021/03/23 07:47:39;;;;;;;19.10;6.95;;;6.70;92.60;;;;;;4982402;28;20023;-80
2021/03/23 07:50:14;;;;;;;13.68;6.70;;;6.80;92.70;;;;;;4977233;28;20039;-80
2021/03/23 07:53:09;;;;;;;13.40;6.53;;;6.90;92.60;;;;;;4978048;28;20023;-81
2021/03/23 07:55:36;;;;;;;12.85;5.80;;;7.00;92.80;;;;;;4977297;28;20027;-80
2021/03/23 07:58:30;;;;;;;14.15;5.18;;;7.10;92.90;;;;;;4960158;28;20031;-80
2021/03/23 08:01:32;;;;;;;12.45;5.93;;;7.10;92.70;;;;;;4977404;28;20027;-80
2021/03/23 08:04:16;;;;;;;13.55;6.30;;;7.20;92.80;;;;;;4963832;28;20035;-80
2021/03/23 08:07:11;;;;;;;13.75;5.45;;;7.30;92.70;;;;;;4977181;28;20482;-80
2021/03/23 08:09:58;;;;;;;11.32;4.90;;;7.40;92.80;;;;;;4908159;28;20043;-80
2021/03/23 08:12:46;;;;;;;13.80;6.57;;;7.50;92.80;;;;;;4976932;28;20475;-80
2021/03/23 08:15:44;;;;;;;12.38;5.15;;;7.60;92.70;;;;;;4959719;28;20023;-79
2021/03/23 08:18:22;;;;;;;11.77;5.68;;;7.80;93.10;;;;;;4959644;28;20113;-79
2021/03/23 08:21:09;;;;;;;12.07;5.55;;;7.90;92.80;;;;;;4977040;28;20027;-80
2021/03/23 08:23:52;;;;;;;11.48;4.68;;;7.90;92.50;;;;;;4959537;28;20441;-81
2021/03/23 08:26:33;;;;;;;10.55;4.82;;;8.00;92.70;;;;;;4977326;28;20026;-81
2021/03/23 08:29:14;;;;;;;11.02;4.97;;;8.10;92.90;;;;;;4977020;28;20473;-79
2021/03/23 08:32:10;;;;;;;10.80;5.15;;;8.20;92.90;;;;;;4959597;28;20110;-79
2021/03/23 08:34:54;;;;;;;12.18;4.72;;;8.40;92.90;;;;;;4959281;28;20479;-79
2021/03/23 08:37:47;;;;;;;11.27;4.47;;;8.50;93.10;;;;;;4976437;28;20394;-79
2021/03/23 08:40:36;;;;;;;10.45;4.50;;;8.70;92.80;;;;;;4976582;28;20029;-80
2021/03/23 08:43:02;;;;;;;11.20;4.95;;;8.70;92.60;;;;;;4976439;28;20082;-79
2021/03/23 08:45:31;;;;;;;9.57;3.90;;;8.70;92.70;;;;;;4978017;28;20035;-81
2021/03/23 08:48:05;;;;;;;11.15;5.05;;;8.90;93.00;;;;;;4995857;28;20069;-79
2021/03/23 08:50:39;;;;;;;11.52;4.85;;;9.00;92.70;;;;;;4994789;28;20046;-79
2021/03/23 08:53:31;;;;;;;11.30;5.25;;;9.00;92.30;;;;;;4995796;28;20038;-78
2021/03/23 08:55:58;;;;;;;10.38;4.43;;;9.00;92.50;;;;;;4993966;28;20031;-79
2021/03/23 08:58:46;;;;;;;10.05;4.28;;;9.00;92.40;;;;;;4995754;28;20026;-79
2021/03/23 09:01:27;;;;;;;10.07;4.18;;;9.10;92.50;;;;;;4995584;28;20018;-78
2021/03/23 09:04:15;;;;;;;9.02;4.20;;;9.10;92.50;;;;;;4994369;28;20605;-80
2021/03/23 09:06:53;;;;;;;9.30;3.72;;;9.20;92.70;;;;;;4995291;28;20045;-77
2021/03/23 09:09:30;;;;;;;9.65;4.20;;;9.40;92.80;;;;;;4995488;28;20026;-79
2021/03/23 09:12:13;;;;;;;9.55;4.38;;;9.50;93.00;;;;;;4995578;28;20101;-79
2021/03/23 09:15:15;;;;;;;9.63;3.85;;;9.60;92.90;;;;;;4995435;28;20033;-82
2021/03/23 09:18:11;;;;;;;8.98;3.97;;;9.70;92.50;;;;;;4995473;28;20422;-81
2021/03/23 09:20:37;;;;;;;12.40;4.22;;;9.60;92.30;;;;;;4993945;28;20023;-83
2021/03/23 09:23:18;;;;;;;13.52;5.07;;;9.50;92.20;;;;;;4995463;28;20497;-81
2021/03/23 09:25:55;;;;;;;8.55;3.88;;;9.50;92.10;;;;;;4995187;28;20026;-82
2021/03/23 09:28:33;;;;;;;10.38;4.50;;;9.40;92.00;;;;;;4995291;28;20022;-80
2021/03/23 09:31:40;;;;;;;9.55;4.45;;;9.40;92.10;;;;;;4994164;28;20431;-83
2021/03/23 09:34:44;;;;;;;9.88;3.63;;;9.40;92.30;;;;;;4994394;28;20466;-82
2021/03/23 09:37:31;;;;;;;10.50;4.15;;;9.50;92.70;;;;;;4994432;28;20053;-82
2021/03/23 09:39:56;;;;;;;11.05;4.82;;;9.70;92.70;;;;;;4995201;28;20018;-82
2021/03/23 09:42:26;;;;;;;11.10;4.32;;;9.80;93.00;;;;;;4995330;28;20374;-83
2021/03/23 09:45:04;;;;;;;8.88;4.07;;;9.90;92.50;;;;;;4977837;28;20033;-79
2021/03/23 09:48:01;;;;;;;8.70;3.53;;;10.10;92.70;;;;;;4976696;28;20427;-78
2021/03/23 09:50:41;;;;;;;10.63;4.15;;;10.10;92.40;;;;;;4949639;28;20038;-78
2021/03/23 09:53:10;;;;;;;9.50;4.28;;;10.00;92.00;;;;;;4975113;28;20031;-78
2021/03/23 09:55:40;;;;;;;11.20;5.25;;;10.00;92.20;;;;;;4975138;28;20479;-80
2021/03/23 09:58:06;;;;;;;8.85;3.88;;;9.90;92.00;;;;;;4975188;28;20034;-80
2021/03/23 10:00:34;;;;;;;9.93;4.00;;;10.10;92.80;;;;;;4974966;28;20031;-81
2021/03/23 10:03:01;;;;;;;8.95;3.90;;;10.20;92.50;;;;;;4974888;28;20026;-81
2021/03/23 10:05:32;;;;;;;10.48;4.35;;;10.30;92.40;;;;;;4957844;28;20085;-81
2021/03/23 10:08:17;;;;;;;9.85;3.80;;;10.20;91.60;;;;;;4975132;28;20376;-81
2021/03/23 10:10:43;;;;;;;7.97;3.75;;;10.00;91.70;;;;;;4957821;28;20034;-81
2021/03/23 10:13:26;;;;;;;8.45;3.55;;;9.90;91.80;;;;;;4975730;28;20025;-80
2021/03/23 10:15:52;;;;;;;9.93;4.03;;;9.90;91.90;;;;;;4975077;28;20427;-81
2021/03/23 10:18:20;;;;;;;8.93;3.55;;;9.90;91.90;;;;;;4975396;28;20030;-82
2021/03/23 10:20:58;;;;;;;8.23;3.60;;;9.80;92.00;;;;;;4974691;28;20551;-79
2021/03/23 10:23:26;;;;;;;9.55;4.10;;;9.90;92.10;;;;;;4974894;28;20114;-80
2021/03/23 10:26:06;;;;;;;8.75;3.40;;;9.90;92.10;;;;;;4957423;28;20027;-81
2021/03/23 10:28:38;;;;;;;10.02;3.70;;;10.00;92.40;;;;;;4974849;28;20023;-81
2021/03/23 10:31:08;;;;;;;7.18;3.13;;;10.10;92.40;;;;;;4974545;28;20023;-81
2021/03/23 10:33:37;;;;;;;12.50;5.05;;;10.10;92.20;;;;;;4974963;28;20047;-82
2021/03/23 10:36:09;;;;;;;9.43;3.67;;;10.20;92.10;;;;;;4974649;28;20057;-84
2021/03/23 10:38:38;;;;;;;6.00;3.03;;;10.20;92.30;;;;;;4975019;28;20027;-84
2021/03/23 10:41:19;;;;;;;11.65;5.07;;;10.30;92.40;;;;;;4957065;28;20214;-83
2021/03/23 10:43:50;;;;;;;9.52;4.32;;;10.40;92.50;;;;;;4957667;28;20037;-83
2021/03/23 10:46:45;;;;;;;12.18;5.18;;;10.60;92.60;;;;;;4965892;28;20026;-83
2021/03/23 10:49:35;;;;;;;6.65;2.60;;;10.70;92.20;;;;;;4978708;28;20563;-84
2021/03/23 10:52:24;;;;;;;9.77;4.18;;;10.80;92.10;;;;;;4993535;28;20030;-81
2021/03/23 10:55:16;;;;;;;10.32;5.10;;;10.70;91.80;;;;;;4994272;28;20025;-79
2021/03/23 10:57:42;;;;;;;10.45;4.40;;;10.80;92.20;;;;;;4993605;28;20038;-80
2021/03/23 11:00:31;;;;;;;8.95;3.97;;;10.90;92.50;;;;;;4994005;28;20529;-80
2021/03/23 11:03:27;;;;;;;6.15;2.28;;;11.00;91.90;;;;;;4993930;28;20022;-79
2021/03/23 11:05:59;;;;;;;13.35;6.25;;;10.90;91.70;;;;;;4996145;28;20050;-82
2021/03/23 11:08:25;;;;;;;12.73;5.40;;;11.00;92.10;;;;;;5000337;28;20039;-80
2021/03/23 11:10:51;;;;;;;6.28;2.97;;;11.10;91.90;;;;;;4994054;28;20023;-80
2021/03/23 11:13:17;;;;;;;12.10;4.90;;;11.00;91.30;;;;;;4994852;28;20036;-80
2021/03/23 11:15:46;;;;;;;16.48;6.13;;;11.00;91.90;;;;;;4997684;28;20084;-79
2021/03/23 11:18:30;;;;;;;13.07;5.38;;;11.10;92.00;;;;;;4997319;28;20474;-81
2021/03/23 11:20:59;;;;;;;10.95;4.22;;;11.20;92.40;;;;;;4998535;28;20101;-81
2021/03/23 11:23:48;;;;;;;11.07;5.00;;;11.50;92.90;;;;;;5013637;28;20526;-80
2021/03/23 11:26:18;;;;;;;14.05;4.50;;;11.70;92.30;;;;;;5012723;28;20064;-85
2021/03/23 11:28:45;;;;;;;6.20;2.47;;;11.60;91.60;;;;;;5012825;28;20085;-85
2021/03/23 11:31:12;;;;;;;15.48;5.80;;;11.60;91.20;;;;;;5012691;28;20031;-83
2021/03/23 11:33:37;;;;;;;9.32;3.10;;;11.50;91.40;;;;;;4997313;28;20069;-82
2021/03/23 11:36:06;;;;;;;15.15;5.50;;;11.60;91.60;;;;;;4997272;28;20035;-80
2021/03/23 11:38:32;;;;;;;18.25;8.07;;;11.60;91.80;;;;;;4997064;28;20080;-80
2021/03/23 11:40:59;;;;;;;16.25;7.03;;;11.70;91.80;;;;;;4997491;28;20045;-80
2021/03/23 11:43:43;;;;;;;10.55;4.63;;;11.70;91.50;;;;;;4997145;28;20045;-80
2021/03/23 11:46:14;;;;;;;10.77;4.65;;;11.60;91.50;;;;;;4989927;28;20102;-81
2021/03/23 11:48:43;;;;;;;16.52;5.80;;;11.80;91.50;;;;;;4975847;28;20038;-80
2021/03/23 11:51:09;;;;;;;7.00;3.42;;;11.60;90.90;;;;;;4977595;28;20034;-80
2021/03/23 11:53:35;;;;;;;11.45;5.00;;;11.60;91.50;;;;;;4977430;28;20453;-80
2021/03/23 11:56:01;;;;;;;7.63;3.50;;;11.50;91.60;;;;;;4960379;28;20135;-81
2021/03/23 11:58:27;;;;;;;15.20;5.82;;;11.60;91.70;;;;;;4977386;28;20094;-80
2021/03/23 12:00:53;;;;;;;11.07;4.07;;;11.70;91.70;;;;;;4977418;28;20027;-81
2021/03/23 12:03:20;;;;;;;14.48;5.25;;;11.60;91.30;;;;;;4959635;28;20042;-81
2021/03/23 12:05:47;;;;;;;14.75;6.30;;;11.60;90.90;;;;;;4977567;28;20106;-81
2021/03/23 12:08:35;;;;;;;12.88;6.13;;;11.40;90.80;;;;;;4977196;28;20034;-81
2021/03/23 12:11:24;;;;;;;10.90;4.63;;;11.30;91.10;;;;;;4966412;28;20391;-81
2021/03/23 12:14:08;;;;;;;11.77;5.22;;;11.40;91.80;;;;;;4976815;28;20034;-81
2021/03/23 12:16:46;;;;;;;14.67;6.03;;;11.50;91.90;;;;;;4976992;28;20038;-81
2021/03/23 12:19:14;;;;;;;11.52;5.30;;;11.50;91.40;;;;;;4959540;28;20027;-81
2021/03/23 12:21:40;;;;;;;13.98;5.70;;;11.40;91.30;;;;;;4976957;28;20054;-81
2021/03/23 12:24:07;;;;;;;9.77;3.95;;;11.20;90.60;;;;;;4959402;28;20118;-80
2021/03/23 12:26:33;;;;;;;12.32;5.65;;;11.00;90.70;;;;;;4976837;28;20027;-80
2021/03/23 12:28:59;;;;;;;10.07;4.28;;;10.80;90.50;;;;;;4977071;28;20050;-80
2021/03/23 12:31:25;;;;;;;8.63;3.88;;;10.60;90.70;;;;;;4959451;28;20030;-81
2021/03/23 12:33:52;;;;;;;15.20;7.30;;;10.60;90.90;;;;;;4959838;28;20034;-83
2021/03/23 12:36:18;;;;;;;13.07;4.82;;;10.40;90.90;;;;;;4959820;28;20475;-80
2021/03/23 12:38:46;;;;;;;12.00;4.28;;;10.50;90.90;;;;;;4959728;28;20046;-81
2021/03/23 12:41:15;;;;;;;14.57;6.93;;;10.50;91.30;;;;;;4976868;28;20031;-81
2021/03/23 12:43:41;;;;;;;11.90;5.30;;;10.70;92.00;;;;;;4977176;28;20085;-81
2021/03/23 12:46:10;;;;;;;10.60;4.85;;;10.90;92.10;;;;;;4965847;28;20057;-81
2021/03/23 12:48:37;;;;;;;11.65;4.25;;;11.20;92.30;;;;;;4995818;28;20022;-81
2021/03/23 12:51:03;;;;;;;10.73;4.93;;;11.50;92.70;;;;;;4995758;28;20030;-81
2021/03/23 12:53:29;;;;;;;10.10;4.75;;;11.90;92.80;;;;;;4996206;28;20022;-86
2021/03/23 12:55:54;;;;;;;18.23;7.13;;;12.30;92.60;;;;;;4978414;28;20032;-85
2021/03/23 12:58:29;;;;;;;12.88;5.70;;;12.40;91.60;;;;;;4978456;28;20502;-84
2021/03/23 13:00:55;;;;;;;14.90;7.55;;;12.60;91.80;;;;;;4995447;28;20026;-84
2021/03/23 13:03:21;;;;;;;15.38;6.30;;;12.40;90.90;;;;;;4978143;28;20471;-80
2021/03/23 13:05:51;;;;;;;12.70;6.15;;;12.40;90.70;;;;;;4995641;28;20081;-82
2021/03/23 13:08:23;;;;;;;16.60;7.07;;;12.10;90.30;;;;;;4962630;28;20034;-82
2021/03/23 13:10:52;;;;;;;10.82;4.45;;;11.70;89.00;;;;;;4978377;28;20041;-83
2021/03/23 13:13:24;;;;;;;16.92;7.07;;;11.50;90.30;;;;;;4978670;28;20030;-83
2021/03/23 13:15:51;;;;;;;11.48;5.82;;;11.20;90.00;;;;;;4979009;28;20026;-83
2021/03/23 13:18:25;;;;;;;12.02;5.75;;;11.10;90.70;;;;;;4978317;28;20019;-83
2021/03/23 13:20:51;;;;;;;9.85;4.90;;;11.00;91.00;;;;;;4995554;28;20042;-83
2021/03/23 13:23:30;;;;;;;8.60;3.83;;;11.00;90.90;;;;;;4978012;28;20026;-83
2021/03/23 13:25:58;;;;;;;19.02;8.13;;;10.90;90.50;;;;;;4995235;28;20023;-83
2021/03/23 13:28:47;;;;;;;21.40;10.02;;;10.70;90.50;;;;;;4977759;28;20027;-83
2021/03/23 13:31:16;;;;;;;12.75;5.50;;;10.80;91.30;;;;;;4977921;28;20073;-83
2021/03/23 13:33:44;;;;;;;16.52;6.70;;;11.00;91.80;;;;;;4995336;28;20477;-83
2021/03/23 13:36:51;;;;;;;14.48;7.10;;;11.10;91.40;;;;;;4977527;28;20125;-82
2021/03/23 13:39:19;;;;;;;17.42;6.90;;;11.30;91.70;;;;;;4977932;28;20466;-82
2021/03/23 13:41:45;;;;;;;14.05;7.05;;;11.40;91.10;;;;;;4977639;28;20037;-82
2021/03/23 13:44:37;;;;;;;16.85;7.28;;;11.30;91.20;;;;;;4995041;28;20022;-84
2021/03/23 13:47:03;;;;;;;15.40;7.15;;;11.30;91.00;;;;;;4968032;28;20423;-82
2021/03/23 13:49:29;;;;;;;13.70;6.65;;;11.20;91.00;;;;;;4952775;28;20046;-81
2021/03/23 13:51:56;;;;;;;16.63;7.53;;;11.20;91.10;;;;;;4974552;28;20360;-81
2021/03/23 13:54:22;;;;;;;18.33;8.50;;;11.10;91.10;;;;;;4974474;28;20035;-82
2021/03/23 13:56:48;;;;;;;12.77;6.75;;;11.10;91.10;;;;;;4973935;28;20570;-82
2021/03/23 13:59:20;;;;;;;14.68;7.05;;;11.10;91.10;;;;;;4976035;28;20022;-81
2021/03/23 14:01:50;;;;;;;13.80;7.47;;;11.20;91.40;;;;;;4975676;28;20023;-82
2021/03/23 14:04:17;;;;;;;11.50;5.70;;;11.10;91.30;;;;;;4975690;28;20027;-82
2021/03/23 14:06:43;;;;;;;17.20;8.02;;;11.10;91.30;;;;;;4975272;28;20031;-82
2021/03/23 14:09:31;;;;;;;13.00;6.80;;;11.20;91.50;;;;;;4973623;28;20030;-82
2021/03/23 14:11:59;;;;;;;11.88;5.88;;;11.30;91.60;;;;;;4975139;28;20023;-82
2021/03/23 14:14:25;;;;;;;15.20;6.78;;;11.40;91.60;;;;;;4974104;28;20122;-82
2021/03/23 14:16:51;;;;;;;12.23;5.75;;;11.50;92.00;;;;;;4975141;28;20125;-82
2021/03/23 14:19:19;;;;;;;15.55;6.85;;;11.60;91.40;;;;;;4974866;28;20078;-86
2021/03/23 14:21:45;;;;;;;15.32;6.90;;;11.70;91.80;;;;;;4974886;28;20059;-81
2021/03/23 14:24:14;;;;;;;12.70;6.60;;;11.80;91.70;;;;;;4973652;28;20039;-79
2021/03/23 14:26:41;;;;;;;12.15;5.85;;;11.90;92.00;;;;;;4975233;28;20023;-80
2021/03/23 14:29:07;;;;;;;12.57;6.32;;;11.90;91.40;;;;;;4975044;28;20023;-79